createdAt,value
2018-06-21T00:00:01.113Z,990.27
2018-06-21T00:01:01.043Z,990.29
2018-06-21T00:02:00.973Z,990.26
2018-06-21T00:03:00.903Z,990.27
2018-06-21T00:04:00.832Z,990.29
2018-06-21T00:05:00.762Z,990.33
2018-06-21T00:06:00.693Z,990.33
2018-06-21T00:07:00.624Z,990.34
2018-06-21T00:08:00.554Z,990.36
2018-06-21T00:09:00.484Z,990.31
2018-06-21T00:10:00.419Z,990.34
2018-06-21T00:11:00.345Z,990.32
2018-06-21T00:12:00.274Z,990.34
2018-06-21T00:13:00.205Z,990.36
2018-06-21T00:14:00.133Z,990.32
2018-06-21T00:15:00.071Z,990.32
2018-06-21T00:15:59.997Z,990.37
2018-06-21T00:16:59.925Z,990.38
2018-06-21T00:17:59.855Z,990.37
2018-06-21T00:18:59.786Z,990.35
2018-06-21T00:19:59.716Z,990.36
2018-06-21T00:20:59.644Z,990.32
2018-06-21T00:21:59.575Z,990.31
2018-06-21T00:22:59.506Z,990.30
2018-06-21T00:23:59.586Z,990.31
2018-06-21T00:24:59.364Z,990.27
2018-06-21T00:25:59.304Z,990.31
2018-06-21T00:26:59.225Z,990.28
2018-06-21T00:27:59.156Z,990.33
2018-06-21T00:28:59.086Z,990.31
2018-06-21T00:29:59.015Z,990.30
2018-06-21T00:30:58.949Z,990.29
2018-06-21T00:31:58.876Z,990.26
2018-06-21T00:32:58.805Z,990.19
2018-06-21T00:33:58.740Z,990.23
2018-06-21T00:34:58.666Z,990.16
2018-06-21T00:35:58.598Z,990.14
2018-06-21T00:36:58.524Z,990.12
2018-06-21T00:37:58.455Z,990.11
2018-06-21T00:38:58.384Z,990.09
2018-06-21T00:39:58.314Z,990.06
2018-06-21T00:40:58.244Z,990.05
2018-06-21T00:41:58.178Z,990.05
2018-06-21T00:42:58.106Z,990.04
2018-06-21T00:43:58.035Z,990.01
2018-06-21T00:44:57.964Z,990.00
2018-06-21T00:45:57.894Z,989.98
2018-06-21T00:46:57.824Z,990.01
2018-06-21T00:47:57.755Z,990.02
2018-06-21T00:48:57.686Z,990.03
2018-06-21T00:49:57.614Z,990.04
2018-06-21T00:50:57.545Z,990.01
2018-06-21T00:51:57.475Z,990.03
2018-06-21T00:52:57.407Z,989.97
2018-06-21T00:53:57.335Z,990.02
2018-06-21T00:54:57.265Z,990.00
2018-06-21T00:55:57.194Z,990.00
2018-06-21T00:56:57.123Z,989.96
2018-06-21T00:57:57.053Z,989.98
2018-06-21T00:58:56.985Z,989.91
2018-06-21T00:59:56.913Z,989.97
2018-06-21T01:00:56.844Z,989.90
2018-06-21T01:01:56.780Z,989.92
2018-06-21T01:02:56.704Z,989.89
2018-06-21T01:03:56.635Z,989.84
2018-06-21T01:04:56.562Z,989.86
2018-06-21T01:05:56.493Z,989.81
2018-06-21T01:06:56.422Z,989.85
2018-06-21T01:07:56.353Z,989.80
2018-06-21T01:08:56.285Z,989.83
2018-06-21T01:09:56.212Z,989.86
2018-06-21T01:10:56.143Z,989.86
2018-06-21T01:11:56.073Z,989.83
2018-06-21T01:12:56.002Z,989.86
2018-06-21T01:13:55.932Z,989.84
2018-06-21T01:14:55.863Z,989.85
2018-06-21T01:15:55.794Z,989.81
2018-06-21T01:16:55.722Z,989.79
2018-06-21T01:17:55.651Z,989.83
2018-06-21T01:18:55.584Z,989.80
2018-06-21T01:19:55.514Z,989.80
2018-06-21T01:20:55.440Z,989.81
2018-06-21T01:21:55.371Z,989.79
2018-06-21T01:22:55.301Z,989.76
2018-06-21T01:23:55.232Z,989.76
2018-06-21T01:24:55.161Z,989.74
2018-06-21T01:25:55.091Z,989.70
2018-06-21T01:27:05.287Z,989.71
2018-06-21T01:27:54.951Z,989.72
2018-06-21T01:28:55.635Z,989.70
2018-06-21T01:29:54.810Z,989.70
2018-06-21T01:30:54.740Z,989.69
2018-06-21T01:31:54.670Z,989.68
2018-06-21T01:32:54.600Z,989.65
2018-06-21T01:33:54.532Z,989.65
2018-06-21T01:34:54.460Z,989.65
2018-06-21T01:35:54.390Z,989.64
2018-06-21T01:36:54.319Z,989.65
2018-06-21T01:37:54.250Z,989.64
2018-06-21T01:38:54.179Z,989.63
2018-06-21T01:39:54.109Z,989.66
2018-06-21T01:40:54.038Z,989.63
2018-06-21T01:41:53.968Z,989.66
2018-06-21T01:42:53.898Z,989.67
2018-06-21T01:43:53.829Z,989.62
2018-06-21T01:44:53.757Z,989.66
2018-06-21T01:45:53.687Z,989.63
2018-06-21T01:46:53.617Z,989.65
2018-06-21T01:47:53.547Z,989.62
2018-06-21T01:48:53.476Z,989.62
2018-06-21T01:49:53.406Z,989.60
2018-06-21T01:50:53.336Z,989.61
2018-06-21T01:51:53.267Z,989.61
2018-06-21T01:52:53.195Z,989.64
2018-06-21T01:53:53.125Z,989.64
2018-06-21T01:54:53.055Z,989.65
2018-06-21T01:55:52.986Z,989.65
2018-06-21T01:56:52.914Z,989.64
2018-06-21T01:57:52.845Z,989.63
2018-06-21T01:58:52.775Z,989.60
2018-06-21T01:59:52.705Z,989.58
2018-06-21T02:00:52.634Z,989.62
2018-06-21T02:01:52.564Z,989.59
2018-06-21T02:02:52.495Z,989.58
2018-06-21T02:03:52.426Z,989.57
2018-06-21T02:04:52.353Z,989.59
2018-06-21T02:05:52.283Z,989.54
2018-06-21T02:06:52.214Z,989.53
2018-06-21T02:07:52.144Z,989.56
2018-06-21T02:08:52.072Z,989.54
2018-06-21T02:09:52.002Z,989.58
2018-06-21T02:10:51.935Z,989.57
2018-06-21T02:11:51.862Z,989.56
2018-06-21T02:12:51.791Z,989.60
2018-06-21T02:13:51.721Z,989.57
2018-06-21T02:14:51.651Z,989.60
2018-06-21T02:15:51.581Z,989.55
2018-06-21T02:16:51.509Z,989.58
2018-06-21T02:17:51.440Z,989.60
2018-06-21T02:18:51.369Z,989.60
2018-06-21T02:19:51.299Z,989.59
2018-06-21T02:20:51.231Z,989.57
2018-06-21T02:21:51.158Z,989.61
2018-06-21T02:22:51.089Z,989.59
2018-06-21T02:23:51.017Z,989.59
2018-06-21T02:24:50.948Z,989.59
2018-06-21T02:25:50.878Z,989.60
2018-06-21T02:26:50.806Z,989.58
2018-06-21T02:27:50.885Z,989.58
2018-06-21T02:28:50.665Z,989.54
2018-06-21T02:29:50.595Z,989.54
2018-06-21T02:30:50.526Z,989.55
2018-06-21T02:31:50.459Z,989.54
2018-06-21T02:32:50.388Z,989.55
2018-06-21T02:33:50.315Z,989.54
2018-06-21T02:34:50.245Z,989.54
2018-06-21T02:35:50.173Z,989.51
2018-06-21T02:36:50.118Z,989.50
2018-06-21T02:37:50.033Z,989.42
2018-06-21T02:38:49.962Z,989.41
2018-06-21T02:39:49.893Z,989.43
2018-06-21T02:40:49.824Z,989.42
2018-06-21T02:41:49.751Z,989.37
2018-06-21T02:42:49.688Z,989.38
2018-06-21T02:43:49.614Z,989.35
2018-06-21T02:44:49.541Z,989.39
2018-06-21T02:45:49.472Z,989.37
2018-06-21T02:46:49.404Z,989.38
2018-06-21T02:47:49.330Z,989.37
2018-06-21T02:48:49.260Z,989.36
2018-06-21T02:49:49.189Z,989.34
2018-06-21T02:50:49.121Z,989.33
2018-06-21T02:51:49.050Z,989.30
2018-06-21T02:52:48.979Z,989.31
2018-06-21T02:53:48.908Z,989.31
2018-06-21T02:54:48.841Z,989.34
2018-06-21T02:55:48.770Z,989.35
2018-06-21T02:56:48.697Z,989.38
2018-06-21T02:57:48.628Z,989.36
2018-06-21T02:58:48.565Z,989.39
2018-06-21T02:59:48.488Z,989.38
2018-06-21T03:00:48.419Z,989.35
2018-06-21T03:01:48.347Z,989.38
2018-06-21T03:02:48.277Z,989.36
2018-06-21T03:03:48.210Z,989.34
2018-06-21T03:04:48.137Z,989.37
2018-06-21T03:05:48.066Z,989.33
2018-06-21T03:06:47.997Z,989.37
2018-06-21T03:07:47.927Z,989.32
2018-06-21T03:08:47.856Z,989.30
2018-06-21T03:09:47.787Z,989.29
2018-06-21T03:10:47.718Z,989.31
2018-06-21T03:11:47.651Z,989.34
2018-06-21T03:12:47.575Z,989.34
2018-06-21T03:13:47.505Z,989.34
2018-06-21T03:14:47.437Z,989.33
2018-06-21T03:15:47.367Z,989.40
2018-06-21T03:16:47.297Z,989.38
2018-06-21T03:17:47.225Z,989.36
2018-06-21T03:18:47.156Z,989.34
2018-06-21T03:19:47.087Z,989.37
2018-06-21T03:20:47.016Z,989.37
2018-06-21T03:21:46.947Z,989.33
2018-06-21T03:22:46.877Z,989.34
2018-06-21T03:23:46.806Z,989.35
2018-06-21T03:24:46.736Z,989.32
2018-06-21T03:25:46.666Z,989.33
2018-06-21T03:26:46.597Z,989.33
2018-06-21T03:27:46.530Z,989.31
2018-06-21T03:28:46.455Z,989.33
2018-06-21T03:29:46.385Z,989.34
2018-06-21T03:30:46.316Z,989.38
2018-06-21T03:31:46.246Z,989.33
2018-06-21T03:32:46.176Z,989.37
2018-06-21T03:33:46.107Z,989.35
2018-06-21T03:34:46.037Z,989.34
2018-06-21T03:35:45.969Z,989.33
2018-06-21T03:36:45.896Z,989.33
2018-06-21T03:37:45.826Z,989.33
2018-06-21T03:38:45.757Z,989.36
2018-06-21T03:39:45.687Z,989.34
2018-06-21T03:40:45.617Z,989.30
2018-06-21T03:41:45.546Z,989.33
2018-06-21T03:42:45.477Z,989.31
2018-06-21T03:43:45.406Z,989.32
2018-06-21T03:44:45.335Z,989.27
2018-06-21T03:45:45.266Z,989.29
2018-06-21T03:46:45.196Z,989.29
2018-06-21T03:47:45.128Z,989.28
2018-06-21T03:48:45.057Z,989.29
2018-06-21T03:49:44.985Z,989.28
2018-06-21T03:50:44.916Z,989.29
2018-06-21T03:51:44.845Z,989.28
2018-06-21T03:52:44.776Z,989.30
2018-06-21T03:53:44.706Z,989.30
2018-06-21T03:54:44.635Z,989.27
2018-06-21T03:55:44.566Z,989.26
2018-06-21T03:56:44.496Z,989.22
2018-06-21T03:57:44.425Z,989.22
2018-06-21T03:58:44.355Z,989.23
2018-06-21T03:59:44.293Z,989.21
2018-06-21T04:00:44.216Z,989.19
2018-06-21T04:01:44.144Z,989.21
2018-06-21T04:02:44.076Z,989.24
2018-06-21T04:03:44.005Z,989.30
2018-06-21T04:04:43.936Z,989.31
2018-06-21T04:05:43.865Z,989.33
2018-06-21T04:06:43.802Z,989.28
2018-06-21T04:07:43.725Z,989.31
2018-06-21T04:08:43.655Z,989.29
2018-06-21T04:09:43.585Z,989.26
2018-06-21T04:10:43.516Z,989.24
2018-06-21T04:11:43.445Z,989.23
2018-06-21T04:12:43.374Z,989.19
2018-06-21T04:13:43.306Z,989.22
2018-06-21T04:14:43.235Z,989.20
2018-06-21T04:15:43.166Z,989.19
2018-06-21T04:16:43.095Z,989.24
2018-06-21T04:17:43.032Z,989.28
2018-06-21T04:18:42.961Z,989.19
2018-06-21T04:19:42.886Z,989.19
2018-06-21T04:20:42.819Z,989.20
2018-06-21T04:21:42.746Z,989.16
2018-06-21T04:22:42.676Z,989.18
2018-06-21T04:23:42.607Z,989.18
2018-06-21T04:24:42.540Z,989.18
2018-06-21T04:25:42.467Z,989.22
2018-06-21T04:26:42.397Z,989.18
2018-06-21T04:27:42.329Z,989.16
2018-06-21T04:28:42.257Z,989.12
2018-06-21T04:29:42.190Z,989.08
2018-06-21T04:30:42.119Z,989.13
2018-06-21T04:31:42.049Z,989.12
2018-06-21T04:32:41.978Z,989.11
2018-06-21T04:33:41.908Z,989.13
2018-06-21T04:34:41.839Z,989.15
2018-06-21T04:35:41.768Z,989.18
2018-06-21T04:36:41.699Z,989.22
2018-06-21T04:37:41.629Z,989.21
2018-06-21T04:38:41.559Z,989.18
2018-06-21T04:39:41.490Z,989.15
2018-06-21T04:40:41.420Z,989.16
2018-06-21T04:41:41.351Z,989.14
2018-06-21T04:42:41.283Z,989.10
2018-06-21T04:43:41.211Z,989.04
2018-06-21T04:44:41.146Z,989.03
2018-06-21T04:45:41.072Z,988.99
2018-06-21T04:46:41.004Z,988.97
2018-06-21T04:47:40.933Z,989.02
2018-06-21T04:48:40.862Z,989.00
2018-06-21T04:49:40.793Z,989.02
2018-06-21T04:50:40.723Z,989.03
2018-06-21T04:51:40.658Z,989.05
2018-06-21T04:52:40.606Z,989.10
2018-06-21T04:53:40.518Z,989.05
2018-06-21T04:54:40.446Z,989.03
2018-06-21T04:55:40.383Z,989.00
2018-06-21T04:56:40.309Z,988.97
2018-06-21T04:57:40.238Z,988.92
2018-06-21T04:58:40.172Z,988.95
2018-06-21T04:59:40.100Z,988.99
2018-06-21T05:00:40.039Z,988.99
2018-06-21T05:01:39.963Z,989.00
2018-06-21T05:02:39.892Z,989.03
2018-06-21T05:03:39.824Z,989.07
2018-06-21T05:04:39.754Z,989.02
2018-06-21T05:05:39.684Z,989.01
2018-06-21T05:06:39.618Z,989.04
2018-06-21T05:07:39.547Z,989.08
2018-06-21T05:08:39.479Z,989.06
2018-06-21T05:09:39.409Z,989.05
2018-06-21T05:10:39.341Z,989.05
2018-06-21T05:11:39.271Z,989.08
2018-06-21T05:12:39.201Z,988.98
2018-06-21T05:13:39.132Z,988.96
2018-06-21T05:14:39.064Z,988.94
2018-06-21T05:15:38.995Z,988.93
2018-06-21T05:16:38.925Z,988.98
2018-06-21T05:17:38.855Z,988.99
2018-06-21T05:18:38.787Z,988.91
2018-06-21T05:19:38.719Z,988.93
2018-06-21T05:20:38.652Z,988.89
2018-06-21T05:21:38.580Z,988.87
2018-06-21T05:22:38.512Z,988.86
2018-06-21T05:23:38.444Z,988.90
2018-06-21T05:24:38.376Z,988.89
2018-06-21T05:25:38.308Z,988.92
2018-06-21T05:26:38.238Z,988.93
2018-06-21T05:27:38.168Z,988.89
2018-06-21T05:28:38.101Z,988.94
2018-06-21T05:29:38.033Z,988.96
2018-06-21T05:30:37.963Z,988.94
2018-06-21T05:31:37.899Z,988.94
2018-06-21T05:32:37.825Z,988.94
2018-06-21T05:33:37.758Z,989.00
2018-06-21T05:34:37.688Z,989.01
2018-06-21T05:35:37.619Z,989.00
2018-06-21T05:36:37.552Z,988.98
2018-06-21T05:37:37.483Z,988.97
2018-06-21T05:38:37.415Z,989.00
2018-06-21T05:39:37.346Z,988.97
2018-06-21T05:40:37.277Z,988.94
2018-06-21T05:41:37.208Z,988.96
2018-06-21T05:42:37.141Z,988.94
2018-06-21T05:43:37.072Z,988.96
2018-06-21T05:44:37.004Z,988.93
2018-06-21T05:45:36.936Z,988.96
2018-06-21T05:46:36.869Z,988.99
2018-06-21T05:47:36.799Z,988.96
2018-06-21T05:48:36.730Z,988.94
2018-06-21T05:49:36.661Z,988.92
2018-06-21T05:50:36.595Z,988.90
2018-06-21T05:51:36.526Z,988.90
2018-06-21T05:52:36.457Z,988.93
2018-06-21T05:53:36.389Z,988.90
2018-06-21T05:54:36.322Z,988.93
2018-06-21T05:55:36.253Z,988.86
2018-06-21T05:56:36.222Z,988.91
2018-06-21T05:57:36.117Z,988.91
2018-06-21T05:58:36.051Z,988.94
2018-06-21T05:59:35.983Z,988.90
2018-06-21T06:00:35.910Z,988.92
2018-06-21T06:01:35.843Z,988.96
2018-06-21T06:02:35.776Z,988.93
2018-06-21T06:03:35.711Z,988.91
2018-06-21T06:04:35.639Z,988.94
2018-06-21T06:05:35.571Z,988.98
2018-06-21T06:06:35.503Z,989.04
2018-06-21T06:07:35.440Z,989.05
2018-06-21T06:08:35.383Z,989.06
2018-06-21T06:09:35.297Z,989.08
2018-06-21T06:10:35.230Z,989.08
2018-06-21T06:11:35.162Z,989.14
2018-06-21T06:12:35.094Z,989.15
2018-06-21T06:13:35.025Z,989.18
2018-06-21T06:14:34.957Z,989.16
2018-06-21T06:15:34.889Z,989.17
2018-06-21T06:16:34.821Z,989.22
2018-06-21T06:17:34.752Z,989.24
2018-06-21T06:18:34.684Z,989.26
2018-06-21T06:19:34.616Z,989.25
2018-06-21T06:20:34.547Z,989.26
2018-06-21T06:21:34.479Z,989.23
2018-06-21T06:22:34.411Z,989.24
2018-06-21T06:23:34.343Z,989.22
2018-06-21T06:24:34.275Z,989.23
2018-06-21T06:25:34.210Z,989.25
2018-06-21T06:26:34.138Z,989.23
2018-06-21T06:27:34.076Z,989.33
2018-06-21T06:28:34.012Z,989.27
2018-06-21T06:29:33.933Z,989.31
2018-06-21T06:30:33.866Z,989.31
2018-06-21T06:31:33.798Z,989.31
2018-06-21T06:32:33.728Z,989.31
2018-06-21T06:33:33.662Z,989.28
2018-06-21T06:34:33.602Z,989.29
2018-06-21T06:35:33.525Z,989.31
2018-06-21T06:36:33.458Z,989.28
2018-06-21T06:37:33.388Z,989.32
2018-06-21T06:38:33.323Z,989.27
2018-06-21T06:39:33.257Z,989.34
2018-06-21T06:40:33.186Z,989.28
2018-06-21T06:41:33.121Z,989.29
2018-06-21T06:42:33.050Z,989.30
2018-06-21T06:43:32.981Z,989.28
2018-06-21T06:44:32.913Z,989.27
2018-06-21T06:45:32.845Z,989.21
2018-06-21T06:46:32.777Z,989.26
2018-06-21T06:47:32.710Z,989.24
2018-06-21T06:48:32.645Z,989.26
2018-06-21T06:49:32.572Z,989.29
2018-06-21T06:50:32.507Z,989.25
2018-06-21T06:51:32.438Z,989.28
2018-06-21T06:52:32.367Z,989.29
2018-06-21T06:53:32.301Z,989.26
2018-06-21T06:54:32.321Z,989.30
2018-06-21T06:55:32.165Z,989.34
2018-06-21T06:56:32.097Z,989.33
2018-06-21T06:57:32.031Z,989.33
2018-06-21T06:58:31.962Z,989.33
2018-06-21T06:59:31.895Z,989.29
2018-06-21T07:00:31.825Z,989.26
2018-06-21T07:01:31.761Z,989.31
2018-06-21T07:02:31.691Z,989.30
2018-06-21T07:03:31.623Z,989.25
2018-06-21T07:04:31.555Z,989.30
2018-06-21T07:05:31.486Z,989.32
2018-06-21T07:06:31.418Z,989.28
2018-06-21T07:07:31.351Z,989.30
2018-06-21T07:08:31.338Z,989.30
2018-06-21T07:09:31.215Z,989.25
2018-06-21T07:10:31.148Z,989.26
2018-06-21T07:11:31.080Z,989.23
2018-06-21T07:12:31.011Z,989.21
2018-06-21T07:13:30.943Z,989.24
2018-06-21T07:14:30.945Z,989.23
2018-06-21T07:15:30.806Z,989.27
2018-06-21T07:16:30.739Z,989.26
2018-06-21T07:17:30.674Z,989.29
2018-06-21T07:18:30.603Z,989.33
2018-06-21T07:19:30.537Z,989.36
2018-06-21T07:20:30.482Z,989.35
2018-06-21T07:21:30.404Z,989.36
2018-06-21T07:22:30.333Z,989.39
2018-06-21T07:23:30.265Z,989.40
2018-06-21T07:24:30.197Z,989.30
2018-06-21T07:25:30.130Z,989.37
2018-06-21T07:26:30.063Z,989.32
2018-06-21T07:27:29.994Z,989.36
2018-06-21T07:28:29.961Z,989.32
2018-06-21T07:29:29.859Z,989.35
2018-06-21T07:30:29.792Z,989.30
2018-06-21T07:31:29.724Z,989.27
2018-06-21T07:32:29.656Z,989.25
2018-06-21T07:33:29.635Z,989.26
2018-06-21T07:34:29.523Z,989.33
2018-06-21T07:35:29.456Z,989.32
2018-06-21T07:36:29.388Z,989.31
2018-06-21T07:37:29.321Z,989.31
2018-06-21T07:38:29.253Z,989.30
2018-06-21T07:39:29.190Z,989.36
2018-06-21T07:40:29.118Z,989.31
2018-06-21T07:41:29.051Z,989.33
2018-06-21T07:42:28.984Z,989.33
2018-06-21T07:43:28.918Z,989.33
2018-06-21T07:44:28.851Z,989.29
2018-06-21T07:45:28.796Z,989.21
2018-06-21T07:46:28.726Z,989.24
2018-06-21T07:47:28.651Z,989.33
2018-06-21T07:48:28.581Z,989.29
2018-06-21T07:49:28.515Z,989.31
2018-06-21T07:50:28.448Z,989.27
2018-06-21T07:51:28.382Z,989.32
2018-06-21T07:52:28.315Z,989.33
2018-06-21T07:53:28.246Z,989.31
2018-06-21T07:54:28.179Z,989.31
2018-06-21T07:55:28.112Z,989.30
2018-06-21T07:56:28.050Z,989.30
2018-06-21T07:57:27.982Z,989.27
2018-06-21T07:58:27.913Z,989.26
2018-06-21T07:59:27.847Z,989.27
2018-06-21T08:00:27.778Z,989.20
2018-06-21T08:01:27.710Z,989.23
2018-06-21T08:02:27.646Z,989.19
2018-06-21T08:03:27.577Z,989.26
2018-06-21T08:04:27.511Z,989.28
2018-06-21T08:05:27.445Z,989.22
2018-06-21T08:06:27.377Z,989.22
2018-06-21T08:07:27.311Z,989.24
2018-06-21T08:08:27.243Z,989.29
2018-06-21T08:09:27.178Z,989.29
2018-06-21T08:10:27.110Z,989.27
2018-06-21T08:11:27.043Z,989.28
2018-06-21T08:12:26.976Z,989.27
2018-06-21T08:13:26.911Z,989.26
2018-06-21T08:14:26.847Z,989.24
2018-06-21T08:15:26.775Z,989.27
2018-06-21T08:16:26.709Z,989.31
2018-06-21T08:17:26.643Z,989.25
2018-06-21T08:18:26.575Z,989.32
2018-06-21T08:19:26.508Z,989.24
2018-06-21T08:20:26.442Z,989.29
2018-06-21T08:21:26.375Z,989.30
2018-06-21T08:22:26.309Z,989.28
2018-06-21T08:23:26.243Z,989.32
2018-06-21T08:24:26.177Z,989.27
2018-06-21T08:25:26.109Z,989.26
2018-06-21T08:26:26.042Z,989.24
2018-06-21T08:27:25.976Z,989.24
2018-06-21T08:28:25.907Z,989.24
2018-06-21T08:29:25.847Z,989.26
2018-06-21T08:30:25.778Z,989.26
2018-06-21T08:31:25.707Z,989.27
2018-06-21T08:32:25.639Z,989.24
2018-06-21T08:33:25.573Z,989.29
2018-06-21T08:34:25.512Z,989.29
2018-06-21T08:35:25.440Z,989.28
2018-06-21T08:36:25.372Z,989.36
2018-06-21T08:37:25.305Z,989.38
2018-06-21T08:38:25.238Z,989.36
2018-06-21T08:39:25.173Z,989.37
2018-06-21T08:40:25.105Z,989.37
2018-06-21T08:41:25.037Z,989.38
2018-06-21T08:42:24.970Z,989.38
2018-06-21T08:43:24.903Z,989.40
2018-06-21T08:44:24.839Z,989.47
2018-06-21T08:45:24.770Z,989.42
2018-06-21T08:46:24.702Z,989.42
2018-06-21T08:47:24.637Z,989.41
2018-06-21T08:48:24.568Z,989.43
2018-06-21T08:49:24.502Z,989.44
2018-06-21T08:50:24.435Z,989.43
2018-06-21T08:51:24.367Z,989.42
2018-06-21T08:52:24.301Z,989.39
2018-06-21T08:53:24.234Z,989.42
2018-06-21T08:54:24.167Z,989.45
2018-06-21T08:55:24.100Z,989.48
2018-06-21T08:56:24.035Z,989.46
2018-06-21T08:57:23.968Z,989.47
2018-06-21T08:58:23.966Z,989.48
2018-06-21T08:59:23.832Z,989.49
2018-06-21T09:00:23.766Z,989.50
2018-06-21T09:01:23.702Z,989.50
2018-06-21T09:02:23.632Z,989.51
2018-06-21T09:03:23.566Z,989.52
2018-06-21T09:04:23.498Z,989.56
2018-06-21T09:05:23.436Z,989.56
2018-06-21T09:06:23.366Z,989.54
2018-06-21T09:07:23.299Z,989.57
2018-06-21T09:08:23.232Z,989.54
2018-06-21T09:09:23.165Z,989.59
2018-06-21T09:10:23.099Z,989.53
2018-06-21T09:11:23.032Z,989.52
2018-06-21T09:12:22.964Z,989.45
2018-06-21T09:13:22.899Z,989.51
2018-06-21T09:14:22.831Z,989.50
2018-06-21T09:15:22.775Z,989.56
2018-06-21T09:16:22.700Z,989.59
2018-06-21T09:17:22.634Z,989.54
2018-06-21T09:18:22.564Z,989.57
2018-06-21T09:19:22.497Z,989.57
2018-06-21T09:20:22.430Z,989.53
2018-06-21T09:21:22.366Z,989.56
2018-06-21T09:22:22.298Z,989.55
2018-06-21T09:23:22.231Z,989.57
2018-06-21T09:24:22.163Z,989.55
2018-06-21T09:25:22.097Z,989.52
2018-06-21T09:26:22.032Z,989.52
2018-06-21T09:27:21.965Z,989.56
2018-06-21T09:28:21.898Z,989.52
2018-06-21T09:29:21.831Z,989.57
2018-06-21T09:30:21.765Z,989.60
2018-06-21T09:31:21.700Z,989.59
2018-06-21T09:32:21.633Z,989.60
2018-06-21T09:33:21.586Z,989.57
2018-06-21T09:34:21.501Z,989.59
2018-06-21T09:35:21.435Z,989.58
2018-06-21T09:36:21.369Z,989.63
2018-06-21T09:37:21.302Z,989.61
2018-06-21T09:38:21.237Z,989.60
2018-06-21T09:39:21.170Z,989.62
2018-06-21T09:40:21.103Z,989.61
2018-06-21T09:41:21.037Z,989.61
2018-06-21T09:42:20.971Z,989.62
2018-06-21T09:43:20.905Z,989.64
2018-06-21T09:44:20.842Z,989.59
2018-06-21T09:45:20.772Z,989.60
2018-06-21T09:46:20.707Z,989.67
2018-06-21T09:47:20.642Z,989.66
2018-06-21T09:48:20.573Z,989.69
2018-06-21T09:49:20.509Z,989.70
2018-06-21T09:50:20.442Z,989.65
2018-06-21T09:51:20.376Z,989.67
2018-06-21T09:52:20.309Z,989.63
2018-06-21T09:53:20.243Z,989.71
2018-06-21T09:54:20.176Z,989.66
2018-06-21T09:55:20.112Z,989.68
2018-06-21T09:56:20.046Z,989.70
2018-06-21T09:57:19.979Z,989.67
2018-06-21T09:58:19.914Z,989.72
2018-06-21T09:59:19.850Z,989.67
2018-06-21T10:00:19.780Z,989.66
2018-06-21T10:01:19.715Z,989.72
2018-06-21T10:02:19.647Z,989.69
2018-06-21T10:03:19.582Z,989.70
2018-06-21T10:04:19.515Z,989.73
2018-06-21T10:05:19.449Z,989.73
2018-06-21T10:06:19.386Z,989.76
2018-06-21T10:07:19.317Z,989.74
2018-06-21T10:08:19.250Z,989.74
2018-06-21T10:09:19.182Z,989.71
2018-06-21T10:10:19.117Z,989.66
2018-06-21T10:11:19.052Z,989.71
2018-06-21T10:12:18.986Z,989.83
2018-06-21T10:13:18.917Z,989.70
2018-06-21T10:14:18.851Z,989.78
2018-06-21T10:15:18.785Z,989.78
2018-06-21T10:16:18.718Z,989.73
2018-06-21T10:17:18.652Z,989.75
2018-06-21T10:18:18.587Z,989.78
2018-06-21T10:19:18.520Z,989.72
2018-06-21T10:20:18.453Z,989.65
2018-06-21T10:21:18.388Z,989.69
2018-06-21T10:22:18.321Z,989.65
2018-06-21T10:23:18.255Z,989.63
2018-06-21T10:24:18.192Z,989.62
2018-06-21T10:25:18.122Z,989.65
2018-06-21T10:26:18.056Z,989.60
2018-06-21T10:27:17.990Z,989.60
2018-06-21T10:28:17.922Z,989.59
2018-06-21T10:29:17.858Z,989.66
2018-06-21T10:30:17.791Z,989.66
2018-06-21T10:31:17.725Z,989.63
2018-06-21T10:32:17.658Z,989.63
2018-06-21T10:33:17.593Z,989.69
2018-06-21T10:34:17.526Z,989.67
2018-06-21T10:35:17.460Z,989.67
2018-06-21T10:36:17.396Z,989.68
2018-06-21T10:37:17.329Z,989.67
2018-06-21T10:38:17.261Z,989.63
2018-06-21T10:39:17.196Z,989.65
2018-06-21T10:40:17.130Z,989.68
2018-06-21T10:41:17.065Z,989.83
2018-06-21T10:42:17.002Z,989.78
2018-06-21T10:43:16.936Z,989.71
2018-06-21T10:44:16.864Z,989.72
2018-06-21T10:45:16.799Z,989.69
2018-06-21T10:46:16.733Z,989.75
2018-06-21T10:47:16.668Z,989.72
2018-06-21T10:48:16.601Z,989.80
2018-06-21T10:49:16.546Z,989.68
2018-06-21T10:50:16.471Z,989.62
2018-06-21T10:51:16.405Z,989.70
2018-06-21T10:52:16.337Z,989.70
2018-06-21T10:53:16.273Z,989.70
2018-06-21T10:54:16.207Z,989.73
2018-06-21T10:55:16.145Z,989.81
2018-06-21T10:56:16.076Z,989.77
2018-06-21T10:57:16.010Z,989.74
2018-06-21T10:58:15.945Z,989.76
2018-06-21T10:59:15.879Z,989.73
2018-06-21T11:00:15.813Z,989.73
2018-06-21T11:01:15.749Z,989.83
2018-06-21T11:02:15.682Z,989.96
2018-06-21T11:03:15.648Z,990.02
2018-06-21T11:04:15.550Z,990.15
2018-06-21T11:05:15.490Z,990.18
2018-06-21T11:06:15.420Z,990.17
2018-06-21T11:07:15.354Z,990.12
2018-06-21T11:08:15.288Z,990.26
2018-06-21T11:09:15.221Z,990.28
2018-06-21T11:10:15.156Z,990.44
2018-06-21T11:11:15.089Z,990.27
2018-06-21T11:12:15.022Z,990.35
2018-06-21T11:13:14.955Z,990.35
2018-06-21T11:14:14.887Z,990.32
2018-06-21T11:15:14.822Z,990.34
2018-06-21T11:16:14.754Z,990.45
2018-06-21T11:17:14.687Z,990.35
2018-06-21T11:18:14.620Z,990.38
2018-06-21T11:19:14.552Z,990.38
2018-06-21T11:20:14.489Z,990.38
2018-06-21T11:21:14.416Z,990.43
2018-06-21T11:22:14.349Z,990.48
2018-06-21T11:23:14.281Z,990.50
2018-06-21T11:24:14.214Z,990.48
2018-06-21T11:25:14.147Z,990.58
2018-06-21T11:26:14.080Z,990.58
2018-06-21T11:27:14.010Z,990.65
2018-06-21T11:28:13.942Z,990.64
2018-06-21T11:29:13.874Z,990.58
2018-06-21T11:30:13.808Z,990.67
2018-06-21T11:31:13.740Z,990.76
2018-06-21T11:32:13.672Z,990.74
2018-06-21T11:33:13.605Z,990.76
2018-06-21T11:34:13.537Z,990.62
2018-06-21T11:35:13.469Z,990.74
2018-06-21T11:36:13.404Z,990.73
2018-06-21T11:37:13.334Z,990.74
2018-06-21T11:38:13.307Z,990.78
2018-06-21T11:39:13.199Z,990.96
2018-06-21T11:40:13.130Z,990.92
2018-06-21T11:41:13.062Z,990.99
2018-06-21T11:42:12.996Z,990.88
2018-06-21T11:43:12.929Z,990.87
2018-06-21T11:44:12.862Z,990.83
2018-06-21T11:45:12.798Z,990.79
2018-06-21T11:46:12.730Z,990.87
2018-06-21T11:47:12.663Z,990.83
2018-06-21T11:48:12.597Z,990.78
2018-06-21T11:49:12.531Z,990.77
2018-06-21T11:50:12.464Z,990.76
2018-06-21T11:51:12.399Z,990.79
2018-06-21T11:52:12.372Z,990.72
2018-06-21T11:53:12.264Z,990.77
2018-06-21T11:54:12.198Z,990.77
2018-06-21T11:55:12.131Z,990.72
2018-06-21T11:56:12.065Z,990.76
2018-06-21T11:57:11.999Z,990.80
2018-06-21T11:58:11.931Z,990.84
2018-06-21T11:59:11.864Z,990.85
2018-06-21T12:00:11.798Z,990.84
2018-06-21T12:01:11.730Z,990.83
2018-06-21T12:02:11.663Z,990.84
2018-06-21T12:03:11.596Z,990.89
2018-06-21T12:04:11.528Z,990.89
2018-06-21T12:05:11.461Z,990.89
2018-06-21T12:06:11.393Z,990.92
2018-06-21T12:07:11.325Z,990.88
2018-06-21T12:08:11.257Z,990.92
2018-06-21T12:09:11.190Z,990.92
2018-06-21T12:10:11.122Z,990.96
2018-06-21T12:11:11.053Z,990.95
2018-06-21T12:12:10.986Z,990.93
2018-06-21T12:13:10.919Z,990.85
2018-06-21T12:14:10.878Z,990.85
2018-06-21T12:15:10.780Z,990.82
2018-06-21T12:16:10.712Z,990.84
2018-06-21T12:17:10.643Z,990.82
2018-06-21T12:18:10.575Z,990.86
2018-06-21T12:19:10.506Z,990.86
2018-06-21T12:20:10.437Z,990.87
2018-06-21T12:21:10.368Z,990.85
2018-06-21T12:22:10.301Z,990.84
2018-06-21T12:23:10.231Z,990.84
2018-06-21T12:24:10.162Z,990.82
2018-06-21T12:25:10.094Z,990.80
2018-06-21T12:26:10.051Z,990.84
2018-06-21T12:27:09.956Z,990.80